Time;durP1;ratioP1;P1;durP2;ratioP2;P2;SDS_P1;SDS_P2;PMS_P1;PMS_P2;Temp;Humidity;BMP_temperature;BMP_pressure;BME280_temperature;BME280_humidity;BME280_pressure;Samples;Min_cycle;Max_cycle;Signal;HPM_P1;HPM_P2
2021/11/10 00:00:18;;;;;;;8.75;3.60;;;6.40;99.90;;;;;;5045387;28;20068;-81
2021/11/10 00:02:44;;;;;;;13.73;3.95;;;6.40;99.90;;;;;;5045505;28;20037;-81
2021/11/10 00:05:11;;;;;;;9.05;3.72;;;6.40;99.90;;;;;;5043999;28;20041;-82
2021/11/10 00:07:36;;;;;;;9.30;3.70;;;6.30;99.90;;;;;;5045553;28;20049;-82
2021/11/10 00:10:04;;;;;;;10.00;4.10;;;6.20;99.90;;;;;;5045548;28;20024;-82
2021/11/10 00:12:29;;;;;;;17.00;5.28;;;6.20;99.90;;;;;;5043932;28;20025;-82
2021/11/10 00:14:55;;;;;;;12.05;4.13;;;6.30;99.90;;;;;;5045100;28;20032;-82
2021/11/10 00:17:21;;;;;;;10.00;4.35;;;6.20;99.90;;;;;;5045719;28;20085;-82
2021/11/10 00:19:47;;;;;;;7.78;3.85;;;6.20;99.90;;;;;;5045101;28;20033;-82
2021/11/10 00:22:12;;;;;;;10.27;4.65;;;6.20;99.90;;;;;;5045475;28;20052;-81
2021/11/10 00:24:38;;;;;;;12.90;4.10;;;6.20;99.90;;;;;;5043933;28;20124;-81
2021/11/10 00:27:04;;;;;;;10.52;4.10;;;6.20;99.90;;;;;;5044917;28;20044;-81
2021/11/10 00:29:29;;;;;;;11.48;4.55;;;6.20;99.90;;;;;;5043365;28;20068;-80
2021/11/10 00:31:55;;;;;;;9.02;4.47;;;6.20;99.90;;;;;;5043916;28;20044;-82
2021/11/10 00:34:21;;;;;;;7.60;3.65;;;6.20;99.90;;;;;;5043898;28;20036;-81
2021/11/10 00:36:47;;;;;;;12.85;4.63;;;6.20;99.90;;;;;;5043988;28;20021;-80
2021/11/10 00:39:13;;;;;;;6.70;3.70;;;6.20;99.90;;;;;;5044984;28;20025;-80
2021/11/10 00:41:38;;;;;;;10.73;5.03;;;6.20;99.90;;;;;;5044897;28;20496;-81
2021/11/10 00:44:04;;;;;;;12.85;3.85;;;6.20;99.90;;;;;;5044986;28;20041;-81
2021/11/10 00:46:31;;;;;;;8.73;3.67;;;6.20;99.90;;;;;;5043473;28;20043;-81
2021/11/10 00:48:58;;;;;;;11.25;5.30;;;6.10;99.90;;;;;;5043690;28;20030;-82
2021/11/10 00:51:23;;;;;;;13.50;3.65;;;6.10;99.90;;;;;;5044774;28;20486;-81
2021/11/10 00:53:50;;;;;;;12.00;5.25;;;6.10;99.90;;;;;;5044558;28;20028;-82
2021/11/10 00:56:15;;;;;;;11.38;3.90;;;6.00;99.90;;;;;;5043722;28;20116;-82
2021/11/10 00:58:41;;;;;;;12.25;4.13;;;6.00;99.90;;;;;;5044688;28;20036;-82
2021/11/10 01:01:07;;;;;;;10.20;4.28;;;6.00;99.90;;;;;;5043434;28;20087;-81
2021/11/10 01:03:32;;;;;;;12.38;4.97;;;6.10;99.90;;;;;;5044672;28;20032;-81
2021/11/10 01:05:59;;;;;;;9.00;3.33;;;5.90;99.90;;;;;;5044632;28;20045;-82
2021/11/10 01:08:26;;;;;;;8.93;3.97;;;5.90;99.90;;;;;;5044937;28;20385;-81
2021/11/10 01:10:53;;;;;;;7.90;3.25;;;5.80;99.90;;;;;;5043056;28;20040;-81
2021/11/10 01:13:20;;;;;;;11.38;4.00;;;5.80;99.90;;;;;;5043477;28;20037;-82
2021/11/10 01:15:46;;;;;;;16.13;4.00;;;5.70;99.90;;;;;;5043151;28;20075;-82
2021/11/10 01:18:12;;;;;;;6.63;3.78;;;5.70;99.90;;;;;;5043256;28;20096;-82
2021/11/10 01:20:38;;;;;;;7.85;4.38;;;5.60;99.90;;;;;;5043466;28;20485;-81
2021/11/10 01:23:05;;;;;;;8.65;3.85;;;5.60;99.90;;;;;;5043122;28;20037;-82
2021/11/10 01:25:31;;;;;;;6.68;3.42;;;5.60;99.90;;;;;;5042877;28;20470;-82
2021/11/10 01:27:57;;;;;;;10.32;4.32;;;5.50;99.90;;;;;;5044414;28;20030;-81
2021/11/10 01:30:23;;;;;;;7.53;3.55;;;5.50;99.90;;;;;;5044581;28;20077;-81
2021/11/10 01:32:49;;;;;;;19.52;3.92;;;5.50;99.90;;;;;;5044710;28;20030;-81
2021/11/10 01:35:15;;;;;;;9.23;4.40;;;5.50;99.90;;;;;;5044575;28;20062;-82
2021/11/10 01:37:41;;;;;;;13.93;4.05;;;5.60;99.90;;;;;;5042877;28;20471;-81
2021/11/10 01:40:09;;;;;;;7.70;3.45;;;5.50;99.90;;;;;;5042992;28;20033;-81
2021/11/10 01:42:39;;;;;;;15.27;3.70;;;5.50;99.90;;;;;;5043205;28;20026;-81
2021/11/10 01:45:06;;;;;;;12.32;3.92;;;5.50;99.90;;;;;;5046815;28;20037;-81
2021/11/10 01:47:32;;;;;;;8.00;3.55;;;5.50;99.90;;;;;;5048289;28;20029;-80
2021/11/10 01:49:57;;;;;;;9.55;4.00;;;5.40;99.90;;;;;;5048133;28;20036;-81
2021/11/10 01:52:23;;;;;;;7.68;3.20;;;5.50;99.90;;;;;;5048181;28;20461;-81
2021/11/10 01:54:50;;;;;;;11.32;3.58;;;5.40;99.90;;;;;;5046730;28;20026;-81
2021/11/10 01:57:16;;;;;;;9.80;4.22;;;5.40;99.90;;;;;;5047034;28;20049;-81
2021/11/10 01:59:42;;;;;;;9.07;3.97;;;5.40;99.90;;;;;;5046254;28;20032;-81
2021/11/10 02:02:19;;;;;;;9.15;3.70;;;5.40;99.90;;;;;;5046601;28;20030;-81
2021/11/10 02:04:47;;;;;;;14.88;4.72;;;5.40;99.90;;;;;;5046559;28;20048;-81
2021/11/10 02:07:13;;;;;;;9.32;4.03;;;5.40;99.90;;;;;;5046579;28;20486;-81
2021/11/10 02:09:41;;;;;;;7.78;3.80;;;5.40;99.90;;;;;;5047672;28;20025;-82
2021/11/10 02:12:07;;;;;;;6.72;3.35;;;5.20;99.90;;;;;;5046368;28;20037;-82
2021/11/10 02:14:32;;;;;;;10.85;5.03;;;5.30;99.90;;;;;;5046279;28;20052;-81
2021/11/10 02:16:58;;;;;;;10.88;4.40;;;5.30;99.90;;;;;;5046192;28;20028;-81
2021/11/10 02:19:25;;;;;;;9.50;4.05;;;5.30;99.90;;;;;;5048078;28;20033;-82
2021/11/10 02:21:55;;;;;;;7.97;3.35;;;5.20;99.90;;;;;;5046562;28;20029;-83
2021/11/10 02:24:23;;;;;;;7.78;3.80;;;5.20;99.90;;;;;;5046045;28;20037;-83
2021/11/10 02:26:49;;;;;;;8.82;3.92;;;5.20;99.90;;;;;;5046452;28;20037;-81
2021/11/10 02:29:19;;;;;;;8.13;4.18;;;5.20;99.90;;;;;;5046166;28;20049;-82
2021/11/10 02:31:46;;;;;;;15.32;3.05;;;5.10;99.90;;;;;;5046172;28;20025;-82
2021/11/10 02:34:12;;;;;;;9.50;4.28;;;5.10;99.90;;;;;;5046078;28;20473;-82
2021/11/10 02:36:38;;;;;;;8.68;3.92;;;5.10;99.90;;;;;;5047251;28;20025;-82
2021/11/10 02:39:12;;;;;;;19.08;4.93;;;5.10;99.90;;;;;;5045858;28;20060;-82
2021/11/10 02:41:39;;;;;;;15.15;4.50;;;5.10;99.90;;;;;;5045710;28;20127;-82
2021/11/10 02:44:06;;;;;;;20.98;3.60;;;5.10;99.90;;;;;;5046021;28;20030;-82
2021/11/10 02:46:36;;;;;;;14.57;4.25;;;5.10;99.90;;;;;;5045681;28;20037;-82
2021/11/10 02:49:03;;;;;;;11.73;4.43;;;5.10;99.90;;;;;;5046611;28;20405;-82
2021/11/10 02:51:29;;;;;;;15.43;4.95;;;5.00;99.90;;;;;;5047147;28;20052;-82
2021/11/10 02:53:55;;;;;;;7.70;3.45;;;5.00;99.90;;;;;;5045014;28;20030;-82
2021/11/10 02:56:21;;;;;;;8.15;3.25;;;5.00;99.90;;;;;;5045157;28;20055;-82
2021/11/10 02:58:47;;;;;;;7.57;3.63;;;5.00;99.90;;;;;;5045505;28;20126;-81
2021/11/10 03:01:22;;;;;;;19.10;4.38;;;4.90;99.90;;;;;;5045588;28;20036;-81
2021/11/10 03:03:48;;;;;;;15.70;4.22;;;4.90;99.90;;;;;;5045781;28;20524;-82
2021/11/10 03:06:13;;;;;;;9.48;4.82;;;4.90;99.90;;;;;;5045542;28;20034;-80
2021/11/10 03:08:42;;;;;;;8.88;4.22;;;4.80;99.90;;;;;;5046629;28;20030;-80
2021/11/10 03:11:07;;;;;;;9.55;4.50;;;4.80;99.90;;;;;;5045411;28;20029;-82
2021/11/10 03:13:33;;;;;;;8.48;4.25;;;4.80;99.90;;;;;;5045269;28;20032;-83
2021/11/10 03:15:59;;;;;;;15.00;3.78;;;4.80;99.90;;;;;;5044757;28;20026;-80
2021/11/10 03:18:25;;;;;;;10.75;4.15;;;4.80;99.90;;;;;;5046750;28;20025;-80
2021/11/10 03:20:50;;;;;;;10.00;4.18;;;4.80;99.90;;;;;;5045208;28;20025;-80
2021/11/10 03:23:16;;;;;;;20.08;4.63;;;4.80;99.90;;;;;;5046730;28;20052;-81
2021/11/10 03:25:41;;;;;;;13.50;4.80;;;4.80;99.90;;;;;;5044884;28;20070;-80
2021/11/10 03:28:07;;;;;;;10.77;3.88;;;4.80;99.90;;;;;;5045009;28;20080;-80
2021/11/10 03:30:33;;;;;;;9.55;4.00;;;4.80;99.90;;;;;;5045957;28;20049;-80
2021/11/10 03:32:59;;;;;;;9.80;3.75;;;4.80;99.90;;;;;;5044965;28;20112;-80
2021/11/10 03:35:25;;;;;;;12.95;3.53;;;4.90;99.90;;;;;;5046284;28;20026;-81
2021/11/10 03:37:51;;;;;;;12.13;4.18;;;4.90;99.90;;;;;;5044898;28;20033;-80
2021/11/10 03:40:17;;;;;;;15.70;4.93;;;4.90;99.90;;;;;;5046848;28;20026;-81
2021/11/10 03:42:43;;;;;;;7.63;3.90;;;5.00;99.90;;;;;;5046370;28;20036;-81
2021/11/10 03:45:12;;;;;;;14.73;4.82;;;5.00;99.90;;;;;;5046028;28;20390;-81
2021/11/10 03:47:38;;;;;;;12.00;3.95;;;5.00;99.90;;;;;;5046232;28;20036;-82
2021/11/10 03:50:04;;;;;;;12.80;4.72;;;5.00;99.90;;;;;;5045787;28;20032;-82
2021/11/10 03:52:30;;;;;;;10.70;3.85;;;4.90;99.90;;;;;;5044817;28;20025;-82
2021/11/10 03:54:59;;;;;;;8.02;3.78;;;4.90;99.90;;;;;;5044432;28;20052;-82
2021/11/10 03:57:25;;;;;;;21.95;4.75;;;4.90;99.90;;;;;;5044461;28;20056;-82
2021/11/10 03:59:50;;;;;;;8.95;4.13;;;5.00;99.90;;;;;;5045728;28;20049;-82
2021/11/10 04:02:16;;;;;;;10.52;4.03;;;4.90;99.90;;;;;;5045825;28;20030;-82
2021/11/10 04:04:41;;;;;;;10.00;3.83;;;4.90;99.90;;;;;;5043792;28;20572;-82
2021/11/10 04:07:07;;;;;;;16.40;3.65;;;4.90;99.90;;;;;;5045131;28;20057;-82
2021/11/10 04:09:33;;;;;;;13.23;3.53;;;4.90;99.90;;;;;;5044027;28;20056;-82
2021/11/10 04:11:58;;;;;;;12.45;3.70;;;4.90;99.90;;;;;;5044099;28;20025;-81
2021/11/10 04:14:24;;;;;;;13.05;4.78;;;4.90;99.90;;;;;;5044340;28;20025;-82
2021/11/10 04:16:53;;;;;;;7.55;3.55;;;4.90;99.90;;;;;;5043747;28;20060;-82
2021/11/10 04:19:19;;;;;;;10.35;4.05;;;4.90;99.90;;;;;;5043946;28;20072;-81
2021/11/10 04:21:45;;;;;;;8.50;4.00;;;4.90;99.90;;;;;;5043870;28;20033;-81
2021/11/10 04:24:10;;;;;;;10.48;4.05;;;4.90;99.90;;;;;;5045140;28;20059;-80
2021/11/10 04:26:38;;;;;;;17.38;5.05;;;4.90;99.90;;;;;;5043574;28;20034;-81
2021/11/10 04:29:05;;;;;;;10.30;4.32;;;4.90;99.90;;;;;;5045165;28;20045;-81
2021/11/10 04:31:31;;;;;;;9.57;4.35;;;4.90;99.90;;;;;;5043827;28;20092;-81
2021/11/10 04:33:57;;;;;;;8.57;4.50;;;4.90;99.90;;;;;;5060499;28;20030;-81
2021/11/10 04:36:29;;;;;;;8.75;4.43;;;4.90;99.90;;;;;;5043897;28;20047;-79
2021/11/10 04:38:55;;;;;;;10.80;4.55;;;4.90;99.90;;;;;;5045195;28;20085;-79
2021/11/10 04:41:21;;;;;;;15.05;5.07;;;4.90;99.90;;;;;;5043813;28;20029;-80
2021/11/10 04:43:47;;;;;;;14.63;5.80;;;4.90;99.90;;;;;;5043799;28;20029;-81
2021/11/10 04:46:35;;;;;;;11.57;5.38;;;4.90;99.90;;;;;;5043584;28;20043;-80
2021/11/10 04:49:00;;;;;;;8.35;4.35;;;4.90;99.90;;;;;;5044448;28;20037;-81
2021/11/10 04:51:27;;;;;;;20.38;5.32;;;4.90;99.90;;;;;;5043470;28;20033;-81
2021/11/10 04:53:56;;;;;;;8.82;4.25;;;4.90;99.90;;;;;;5044583;28;20045;-81
2021/11/10 04:56:21;;;;;;;10.35;4.55;;;5.00;99.90;;;;;;5044688;28;20026;-81
2021/11/10 04:58:47;;;;;;;15.85;5.65;;;5.00;99.90;;;;;;5043566;28;20043;-81
2021/11/10 05:01:18;;;;;;;14.80;4.90;;;5.00;99.90;;;;;;5044642;28;20071;-82
2021/11/10 05:03:44;;;;;;;24.65;5.07;;;5.00;99.90;;;;;;5043619;28;20032;-82
2021/11/10 05:06:10;;;;;;;11.70;5.53;;;5.10;99.90;;;;;;5044812;28;20030;-80
2021/11/10 05:08:35;;;;;;;11.07;4.82;;;5.10;99.90;;;;;;5043183;28;20025;-81
2021/11/10 05:11:02;;;;;;;9.00;4.35;;;5.10;99.90;;;;;;5043234;28;20026;-80
2021/11/10 05:13:31;;;;;;;9.15;4.22;;;5.20;99.90;;;;;;5044638;28;20112;-79
2021/11/10 05:15:56;;;;;;;8.23;4.55;;;5.20;99.90;;;;;;5043112;28;20045;-80
2021/11/10 05:18:22;;;;;;;14.85;5.93;;;5.20;99.90;;;;;;5045091;28;20030;-79
2021/11/10 05:20:48;;;;;;;10.70;4.60;;;5.30;99.90;;;;;;5048984;28;20049;-79
2021/11/10 05:23:15;;;;;;;13.05;5.00;;;5.30;99.90;;;;;;5047309;28;20033;-79
2021/11/10 05:25:41;;;;;;;11.27;4.50;;;5.30;99.90;;;;;;5047122;28;20041;-78
2021/11/10 05:28:07;;;;;;;12.23;4.32;;;5.20;99.90;;;;;;5048604;28;20052;-78
2021/11/10 05:30:33;;;;;;;8.15;3.95;;;5.30;99.90;;;;;;5046994;28;20041;-78
2021/11/10 05:32:58;;;;;;;14.48;4.63;;;5.10;99.90;;;;;;5047202;28;20492;-81
2021/11/10 05:35:24;;;;;;;10.98;3.97;;;5.10;99.90;;;;;;5046760;28;20490;-80
2021/11/10 05:37:50;;;;;;;9.27;4.35;;;5.10;99.90;;;;;;5047110;28;20029;-80
2021/11/10 05:40:15;;;;;;;12.25;5.10;;;5.10;99.90;;;;;;5046931;28;20041;-82
2021/11/10 05:42:41;;;;;;;10.05;4.22;;;5.10;99.90;;;;;;5046925;28;20489;-81
2021/11/10 05:45:08;;;;;;;7.47;3.83;;;5.10;99.90;;;;;;5046658;28;20037;-82
2021/11/10 05:47:33;;;;;;;12.13;5.13;;;5.20;99.90;;;;;;5048226;28;20025;-82
2021/11/10 05:49:59;;;;;;;11.43;4.35;;;5.30;99.90;;;;;;5046751;28;20036;-79
2021/11/10 05:52:26;;;;;;;10.73;4.18;;;5.30;99.90;;;;;;5047003;28;20021;-79
2021/11/10 05:54:54;;;;;;;11.82;4.93;;;5.40;99.90;;;;;;5047164;28;20026;-79
2021/11/10 05:57:20;;;;;;;15.77;5.13;;;5.50;99.90;;;;;;5046733;28;20064;-78
2021/11/10 05:59:46;;;;;;;11.18;4.55;;;5.40;99.90;;;;;;5048008;28;20493;-78
2021/11/10 06:02:12;;;;;;;13.50;4.93;;;5.50;99.90;;;;;;5048019;28;20096;-79
2021/11/10 06:04:39;;;;;;;15.15;5.13;;;5.50;99.90;;;;;;5046250;28;20033;-77
2021/11/10 06:07:06;;;;;;;13.77;4.65;;;5.50;99.90;;;;;;5046482;28;20030;-79
2021/11/10 06:09:32;;;;;;;18.73;4.78;;;5.60;99.90;;;;;;5047705;28;20028;-81
2021/11/10 06:11:57;;;;;;;13.43;5.40;;;5.60;99.90;;;;;;5047770;28;20037;-82
2021/11/10 06:14:23;;;;;;;14.23;5.70;;;5.60;99.90;;;;;;5047816;28;20025;-82
2021/11/10 06:16:50;;;;;;;15.25;5.35;;;5.70;99.90;;;;;;5046267;28;20097;-79
2021/11/10 06:19:15;;;;;;;9.98;4.25;;;5.70;99.90;;;;;;5046555;28;20022;-82
2021/11/10 06:21:45;;;;;;;18.65;5.95;;;5.80;99.90;;;;;;5045860;28;20036;-82
2021/11/10 06:24:13;;;;;;;15.98;7.38;;;5.70;99.90;;;;;;5046189;28;20025;-81
2021/11/10 06:26:39;;;;;;;12.80;5.38;;;5.90;99.90;;;;;;5045772;28;20045;-80
2021/11/10 06:29:05;;;;;;;15.05;5.45;;;5.90;99.90;;;;;;5045521;28;20053;-80
2021/11/10 06:31:31;;;;;;;12.45;4.57;;;5.90;99.90;;;;;;5046402;28;20096;-80
2021/11/10 06:33:56;;;;;;;14.30;5.45;;;6.00;99.90;;;;;;5047464;28;20022;-81
2021/11/10 06:36:22;;;;;;;9.35;4.65;;;6.00;99.90;;;;;;5046076;28;20071;-81
2021/11/10 06:38:49;;;;;;;18.00;4.78;;;5.90;99.90;;;;;;5046501;28;20029;-80
2021/11/10 06:41:18;;;;;;;11.85;5.20;;;5.90;99.90;;;;;;5045782;28;20464;-82
2021/11/10 06:43:46;;;;;;;26.65;5.57;;;6.00;99.90;;;;;;5045918;28;20026;-80
2021/11/10 06:46:11;;;;;;;9.20;4.40;;;6.00;99.90;;;;;;5045675;28;20045;-79
2021/11/10 06:48:37;;;;;;;20.80;4.72;;;6.00;99.90;;;;;;5046949;28;20032;-79
2021/11/10 06:51:03;;;;;;;17.33;5.32;;;6.00;99.90;;;;;;5047212;28;20092;-79
2021/11/10 06:53:28;;;;;;;16.80;6.95;;;6.00;99.90;;;;;;5045762;28;20037;-77
2021/11/10 06:55:54;;;;;;;10.70;5.30;;;6.00;99.90;;;;;;5045188;28;20036;-80
2021/11/10 06:58:20;;;;;;;28.38;5.55;;;6.10;99.90;;;;;;5060027;28;20025;-80
2021/11/10 07:00:45;;;;;;;14.35;6.00;;;6.10;99.90;;;;;;5068107;28;20029;-79
2021/11/10 07:03:13;;;;;;;11.75;5.10;;;6.00;99.90;;;;;;5066258;28;20386;-81
2021/11/10 07:05:39;;;;;;;10.98;4.78;;;6.00;99.90;;;;;;5066129;28;20047;-78
2021/11/10 07:08:05;;;;;;;17.38;5.60;;;6.10;99.90;;;;;;5066260;28;20025;-80
2021/11/10 07:10:31;;;;;;;19.05;6.47;;;6.20;99.90;;;;;;5065390;28;20024;-80
2021/11/10 07:12:56;;;;;;;16.30;5.50;;;6.20;99.90;;;;;;5065278;28;20083;-80
2021/11/10 07:15:24;;;;;;;14.43;4.85;;;6.20;99.90;;;;;;5066492;28;20085;-80
2021/11/10 07:17:59;;;;;;;14.20;5.15;;;6.30;99.90;;;;;;5065375;28;20374;-81
2021/11/10 07:20:25;;;;;;;15.23;4.50;;;6.40;99.90;;;;;;5053757;28;20497;-80
2021/11/10 07:22:52;;;;;;;11.88;5.20;;;6.40;99.90;;;;;;5040346;28;20033;-82
2021/11/10 07:25:18;;;;;;;17.13;4.78;;;6.60;99.90;;;;;;5046568;28;20041;-80
2021/11/10 07:27:44;;;;;;;16.45;4.82;;;6.50;99.90;;;;;;5045960;28;20408;-80
2021/11/10 07:30:11;;;;;;;14.40;5.13;;;6.50;99.90;;;;;;5061298;28;20042;-80
2021/11/10 07:32:38;;;;;;;19.55;5.13;;;6.50;99.90;;;;;;5041407;28;20026;-77
2021/11/10 07:35:05;;;;;;;11.15;5.30;;;6.50;99.90;;;;;;5051984;28;20036;-79
2021/11/10 07:37:31;;;;;;;16.70;5.70;;;6.50;99.90;;;;;;5045471;28;20048;-79
2021/11/10 07:39:58;;;;;;;16.00;6.00;;;6.50;99.90;;;;;;5026948;28;20022;-81
2021/11/10 07:42:24;;;;;;;8.88;4.72;;;6.70;99.90;;;;;;5024783;28;20030;-80
2021/11/10 07:44:54;;;;;;;10.98;4.78;;;6.70;99.90;;;;;;5041408;28;20052;-80
2021/11/10 07:47:22;;;;;;;14.43;6.53;;;6.80;99.90;;;;;;5048339;28;20413;-78
2021/11/10 07:49:48;;;;;;;14.52;6.13;;;7.10;99.90;;;;;;5052608;28;20469;-78
2021/11/10 07:52:14;;;;;;;14.27;6.30;;;7.30;99.90;;;;;;5041482;28;20022;-78
2021/11/10 07:54:40;;;;;;;14.23;5.38;;;7.40;99.90;;;;;;5026620;28;20036;-78
2021/11/10 07:57:06;;;;;;;12.48;5.80;;;7.50;99.90;;;;;;5025104;28;20057;-79
2021/11/10 07:59:41;;;;;;;15.15;5.55;;;7.60;99.90;;;;;;5026425;28;20029;-81
2021/11/10 08:02:07;;;;;;;12.20;4.85;;;7.70;99.90;;;;;;5033136;28;20514;-79
2021/11/10 08:04:32;;;;;;;15.60;5.95;;;7.80;99.90;;;;;;5024854;28;20034;-78
2021/11/10 08:06:58;;;;;;;25.50;5.60;;;8.00;99.90;;;;;;5024765;28;20030;-80
2021/11/10 08:09:24;;;;;;;7.88;4.20;;;8.20;99.90;;;;;;5024690;28;20094;-78
2021/11/10 08:11:53;;;;;;;12.07;5.38;;;8.40;99.90;;;;;;5026112;28;20085;-79
2021/11/10 08:14:19;;;;;;;10.38;5.70;;;8.50;99.90;;;;;;5041313;28;20120;-77
2021/11/10 08:16:45;;;;;;;21.40;5.20;;;8.40;99.90;;;;;;5024723;28;20069;-79
2021/11/10 08:19:11;;;;;;;16.02;5.35;;;8.40;99.90;;;;;;5024806;28;20033;-82
2021/11/10 08:21:36;;;;;;;22.73;5.68;;;8.40;99.90;;;;;;5024560;28;20481;-78
2021/11/10 08:24:04;;;;;;;9.88;4.85;;;8.30;99.90;;;;;;5024554;28;20033;-78
2021/11/10 08:26:29;;;;;;;12.30;4.85;;;8.20;99.90;;;;;;5030594;28;20101;-79
2021/11/10 08:28:55;;;;;;;20.70;5.50;;;8.10;99.90;;;;;;5038084;28;20053;-76
2021/11/10 08:31:21;;;;;;;9.68;4.57;;;8.00;99.90;;;;;;5054909;28;20030;-78
2021/11/10 08:33:50;;;;;;;11.05;4.95;;;7.90;99.90;;;;;;5040858;28;20033;-79
2021/11/10 08:36:16;;;;;;;13.70;5.55;;;7.70;99.90;;;;;;5044828;28;20025;-76
2021/11/10 08:38:41;;;;;;;11.23;5.68;;;7.60;99.90;;;;;;5044391;28;20026;-77
2021/11/10 08:41:07;;;;;;;10.65;5.13;;;7.50;99.90;;;;;;5057987;28;20033;-78
2021/11/10 08:43:33;;;;;;;16.25;6.70;;;7.40;99.90;;;;;;5048371;28;20034;-78
2021/11/10 08:45:59;;;;;;;10.00;5.45;;;7.40;99.90;;;;;;5051148;28;20048;-77
2021/11/10 08:48:25;;;;;;;13.60;5.85;;;7.30;99.90;;;;;;5034471;28;20026;-81
2021/11/10 08:50:52;;;;;;;12.98;5.35;;;7.30;99.90;;;;;;5044678;28;20022;-77
2021/11/10 08:53:19;;;;;;;10.00;4.97;;;7.30;99.90;;;;;;5046006;28;20056;-79
2021/11/10 08:55:50;;;;;;;14.95;5.80;;;7.30;99.90;;;;;;5045430;28;20053;-75
2021/11/10 08:58:16;;;;;;;15.95;5.57;;;7.30;99.90;;;;;;5044266;28;20029;-76
2021/11/10 09:00:43;;;;;;;10.07;5.18;;;7.40;99.90;;;;;;5043860;28;20041;-77
2021/11/10 09:03:09;;;;;;;11.68;5.28;;;7.40;99.90;;;;;;5044043;28;20034;-77
2021/11/10 09:05:35;;;;;;;18.58;6.55;;;7.50;99.90;;;;;;5045181;28;20053;-80
2021/11/10 09:08:01;;;;;;;16.00;6.40;;;7.60;99.90;;;;;;5042670;28;20036;-82
2021/11/10 09:10:27;;;;;;;14.73;5.82;;;7.70;99.90;;;;;;5035064;28;20029;-76
2021/11/10 09:12:55;;;;;;;10.25;4.75;;;7.80;99.90;;;;;;5033980;28;20032;-78
2021/11/10 09:15:21;;;;;;;17.15;6.05;;;7.80;99.90;;;;;;5034297;28;20033;-78
2021/11/10 09:17:52;;;;;;;11.48;5.15;;;7.90;99.90;;;;;;5040839;28;20040;-78
2021/11/10 09:20:32;;;;;;;18.45;5.80;;;7.90;99.90;;;;;;5042951;28;20124;-79
2021/11/10 09:23:06;;;;;;;14.98;5.50;;;8.00;99.90;;;;;;5049344;28;20029;-79
2021/11/10 09:25:33;;;;;;;12.55;5.93;;;8.00;99.90;;;;;;5064357;28;20482;-80
2021/11/10 09:28:02;;;;;;;22.33;6.30;;;8.00;99.90;;;;;;5061380;28;20032;-79
2021/11/10 09:30:29;;;;;;;12.65;6.18;;;8.10;99.90;;;;;;5035468;28;20050;-81
2021/11/10 09:32:57;;;;;;;14.48;6.65;;;8.10;99.90;;;;;;5042786;28;20056;-78
2021/11/10 09:35:25;;;;;;;16.90;6.85;;;8.10;99.90;;;;;;5041724;28;20052;-78
2021/11/10 09:37:55;;;;;;;12.13;5.57;;;8.20;99.90;;;;;;5032266;28;20033;-79
2021/11/10 09:40:25;;;;;;;17.88;5.80;;;8.30;99.90;;;;;;5030963;28;20030;-80
2021/11/10 09:42:51;;;;;;;13.63;6.13;;;8.40;99.90;;;;;;5025931;28;20131;-78
2021/11/10 09:45:21;;;;;;;16.80;6.88;;;8.40;99.90;;;;;;5026248;28;20544;-80
2021/11/10 09:47:52;;;;;;;15.43;5.25;;;8.50;99.90;;;;;;5035711;28;20093;-79
2021/11/10 09:50:27;;;;;;;23.35;5.35;;;8.60;99.90;;;;;;5034085;28;20064;-80
2021/11/10 09:52:56;;;;;;;16.65;6.68;;;8.70;99.90;;;;;;5039607;28;20037;-80
2021/11/10 09:55:24;;;;;;;18.45;5.38;;;8.70;99.90;;;;;;5039624;28;20057;-80
2021/11/10 09:57:52;;;;;;;18.58;6.90;;;8.70;99.90;;;;;;5024382;28;20026;-80
2021/11/10 10:00:24;;;;;;;19.38;6.45;;;8.60;99.90;;;;;;5024385;28;20030;-79
2021/11/10 10:02:52;;;;;;;18.50;6.00;;;8.60;99.90;;;;;;5037786;28;20026;-79
2021/11/10 10:05:26;;;;;;;17.23;6.30;;;8.60;99.90;;;;;;5060422;28;20037;-78
2021/11/10 10:07:52;;;;;;;18.70;6.70;;;8.60;99.90;;;;;;5047568;28;20025;-76
2021/11/10 10:10:23;;;;;;;11.55;5.57;;;8.60;99.90;;;;;;5046571;28;20064;-77
2021/11/10 10:12:51;;;;;;;15.23;5.82;;;8.60;99.90;;;;;;5046434;28;20036;-78
2021/11/10 10:15:18;;;;;;;16.67;5.88;;;8.60;99.90;;;;;;5040620;28;20037;-79
2021/11/10 10:17:47;;;;;;;13.48;6.18;;;8.60;99.90;;;;;;5039104;28;20398;-79
2021/11/10 10:20:26;;;;;;;17.55;6.13;;;8.60;99.90;;;;;;5036626;28;20405;-76
2021/11/10 10:22:53;;;;;;;25.35;7.13;;;8.60;99.90;;;;;;5035262;28;20030;-78
2021/11/10 10:25:19;;;;;;;13.88;5.95;;;8.60;99.90;;;;;;5026339;28;20038;-78
2021/11/10 10:27:57;;;;;;;21.00;6.30;;;8.60;99.90;;;;;;5034052;28;20026;-80
2021/11/10 10:30:39;;;;;;;10.93;5.88;;;8.60;99.90;;;;;;5036322;28;20054;-76
2021/11/10 10:33:30;;;;;;;12.85;6.28;;;8.60;99.90;;;;;;5043287;28;20430;-78
2021/11/10 10:36:09;;;;;;;15.27;5.78;;;8.60;99.90;;;;;;5044557;28;20036;-78
2021/11/10 10:38:47;;;;;;;19.67;6.68;;;8.70;99.90;;;;;;5041181;28;20485;-80
2021/11/10 10:41:20;;;;;;;16.27;6.57;;;8.70;99.90;;;;;;5040888;28;20025;-80
2021/11/10 10:43:57;;;;;;;16.13;6.75;;;8.70;99.90;;;;;;5043592;28;20025;-79
2021/11/10 10:46:38;;;;;;;15.75;6.13;;;8.80;99.90;;;;;;5051474;28;20041;-77
2021/11/10 10:49:23;;;;;;;15.60;7.25;;;8.80;99.90;;;;;;5065784;28;20029;-78
2021/11/10 10:51:52;;;;;;;12.63;6.32;;;8.80;99.90;;;;;;5065867;28;20127;-80
2021/11/10 10:54:26;;;;;;;18.17;5.80;;;8.80;99.90;;;;;;5066073;28;20036;-80
2021/11/10 10:56:59;;;;;;;28.25;6.97;;;8.80;99.90;;;;;;5065958;28;20036;-77
2021/11/10 10:59:26;;;;;;;15.50;7.53;;;8.90;99.90;;;;;;5067544;28;20084;-79
2021/11/10 11:01:58;;;;;;;15.30;6.55;;;8.90;99.90;;;;;;5067106;28;20052;-79
2021/11/10 11:04:31;;;;;;;21.75;6.82;;;8.90;99.90;;;;;;5042874;28;20079;-81
2021/11/10 11:07:08;;;;;;;19.50;7.85;;;8.90;99.90;;;;;;5051444;28;20122;-79
2021/11/10 11:09:49;;;;;;;17.88;7.13;;;9.00;99.90;;;;;;5041214;28;20030;-79
2021/11/10 11:12:25;;;;;;;15.43;6.57;;;9.00;99.90;;;;;;5037803;28;20058;-79
2021/11/10 11:15:13;;;;;;;18.02;6.68;;;9.00;99.90;;;;;;5050767;28;20116;-80
2021/11/10 11:17:41;;;;;;;21.92;7.45;;;9.00;99.90;;;;;;5025614;28;20104;-79
2021/11/10 11:20:14;;;;;;;27.88;6.88;;;9.00;99.90;;;;;;5035275;28;20101;-79
2021/11/10 11:22:44;;;;;;;20.85;7.20;;;9.10;99.90;;;;;;5043908;28;20037;-78
2021/11/10 11:25:20;;;;;;;23.75;8.80;;;9.10;99.90;;;;;;5044822;28;20052;-80
2021/11/10 11:27:57;;;;;;;15.07;6.65;;;9.10;99.90;;;;;;5044694;28;20107;-78
2021/11/10 11:30:26;;;;;;;28.55;7.88;;;9.20;99.90;;;;;;5027632;28;20060;-79
2021/11/10 11:32:55;;;;;;;14.23;6.95;;;9.20;99.90;;;;;;5040177;28;20065;-80
2021/11/10 11:35:32;;;;;;;12.95;5.57;;;9.20;99.90;;;;;;5039418;28;20025;-80
2021/11/10 11:38:11;;;;;;;11.32;4.93;;;9.20;99.90;;;;;;5039007;28;20033;-78
2021/11/10 11:40:38;;;;;;;9.13;4.55;;;9.30;99.90;;;;;;5036902;28;20030;-80
2021/11/10 11:43:09;;;;;;;11.40;4.78;;;9.30;99.90;;;;;;5036500;28;20041;-79
2021/11/10 11:45:38;;;;;;;12.27;4.95;;;9.30;99.90;;;;;;5033128;28;20482;-78
2021/11/10 11:48:05;;;;;;;16.15;5.43;;;9.30;99.90;;;;;;5048474;28;20056;-80
2021/11/10 11:50:33;;;;;;;9.27;4.10;;;9.30;99.90;;;;;;5035752;28;20120;-78
2021/11/10 11:53:06;;;;;;;8.88;4.43;;;9.30;99.90;;;;;;5025461;28;20034;-81
2021/11/10 11:55:40;;;;;;;12.48;5.32;;;9.30;99.90;;;;;;5037340;28;20350;-76
2021/11/10 11:58:17;;;;;;;23.33;5.75;;;9.30;99.90;;;;;;5046102;28;20029;-77
2021/11/10 12:01:13;;;;;;;10.35;5.20;;;9.30;99.90;;;;;;5044614;28;20063;-78
2021/11/10 12:03:41;;;;;;;19.85;5.57;;;9.40;99.90;;;;;;5027494;28;20064;-79
2021/11/10 12:06:07;;;;;;;8.55;4.07;;;9.40;99.90;;;;;;5044337;28;20040;-78
2021/11/10 12:08:47;;;;;;;10.50;4.47;;;9.40;99.90;;;;;;5035904;28;20049;-79
2021/11/10 12:11:20;;;;;;;14.85;5.35;;;9.40;99.90;;;;;;5042278;28;20037;-80
2021/11/10 12:14:05;;;;;;;10.30;4.55;;;9.40;99.90;;;;;;5035258;28;20037;-77
2021/11/10 12:17:04;;;;;;;10.27;5.47;;;9.40;99.90;;;;;;5025272;28;20096;-78
2021/11/10 12:19:46;;;;;;;14.57;4.93;;;9.40;99.90;;;;;;5029220;28;20029;-80
2021/11/10 12:22:15;;;;;;;13.25;4.95;;;9.50;99.90;;;;;;5024598;28;20045;-79
2021/11/10 12:24:57;;;;;;;15.57;5.18;;;9.40;99.90;;;;;;5038518;28;20469;-79
2021/11/10 12:27:35;;;;;;;14.90;5.90;;;9.50;99.90;;;;;;5042178;28;20025;-79
2021/11/10 12:30:00;;;;;;;12.77;4.65;;;9.50;99.90;;;;;;5042373;28;20180;-79
2021/11/10 12:32:43;;;;;;;9.88;4.57;;;9.40;99.90;;;;;;5043326;28;20022;-79
2021/11/10 12:35:18;;;;;;;20.10;5.38;;;9.60;99.90;;;;;;5043196;28;20044;-78
2021/11/10 12:37:49;;;;;;;12.15;5.07;;;9.50;99.90;;;;;;5043272;28;20089;-79
2021/11/10 12:40:16;;;;;;;13.50;5.30;;;9.40;99.90;;;;;;5043283;28;20848;-78
2021/11/10 12:42:51;;;;;;;11.25;4.70;;;9.40;99.90;;;;;;5043974;28;20057;-79
2021/11/10 12:45:24;;;;;;;15.50;5.47;;;9.40;99.90;;;;;;5042752;28;20045;-80
2021/11/10 12:47:51;;;;;;;11.52;5.55;;;9.40;99.90;;;;;;5044622;28;20089;-79
2021/11/10 12:50:38;;;;;;;8.68;4.93;;;9.40;99.90;;;;;;5040150;28;20039;-80
2021/11/10 12:53:10;;;;;;;11.23;5.32;;;9.40;99.90;;;;;;5034363;28;20030;-80